sensor_id;sensor_type;location;lat;lon;timestamp;pressure;altitude;pressure_sealevel;temperature;humidity
17615;BME280;8926;49.720;6.576;2022-12-11T00:00:56;99305.00;;;0.36;77.51
17615;BME280;8926;49.720;6.576;2022-12-11T00:03:21;99304.91;;;0.41;77.27
17615;BME280;8926;49.720;6.576;2022-12-11T00:05:47;99302.41;;;0.38;77.38
17615;BME280;8926;49.720;6.576;2022-12-11T00:08:12;99301.63;;;0.34;77.65
17615;BME280;8926;49.720;6.576;2022-12-11T00:10:38;99301.69;;;0.31;76.82
17615;BME280;8926;49.720;6.576;2022-12-11T00:13:03;99294.91;;;0.27;77.80
17615;BME280;8926;49.720;6.576;2022-12-11T00:15:29;99298.31;;;0.29;77.45
17615;BME280;8926;49.720;6.576;2022-12-11T00:17:54;99300.06;;;0.27;78.68
17615;BME280;8926;49.720;6.576;2022-12-11T00:20:19;99296.53;;;0.31;78.52
17615;BME280;8926;49.720;6.576;2022-12-11T00:22:45;99294.78;;;0.33;78.13
17615;BME280;8926;49.720;6.576;2022-12-11T00:25:10;99299.72;;;0.42;77.36
17615;BME280;8926;49.720;6.576;2022-12-11T00:27:40;99299.88;;;0.36;79.25
17615;BME280;8926;49.720;6.576;2022-12-11T00:30:08;99295.47;;;0.41;78.41
17615;BME280;8926;49.720;6.576;2022-12-11T00:32:34;99295.47;;;0.41;78.18
17615;BME280;8926;49.720;6.576;2022-12-11T00:34:59;99299.78;;;0.39;77.65
17615;BME280;8926;49.720;6.576;2022-12-11T00:37:24;99296.34;;;0.40;78.33
17615;BME280;8926;49.720;6.576;2022-12-11T00:39:50;99292.16;;;0.36;78.17
17615;BME280;8926;49.720;6.576;2022-12-11T00:42:15;99293.03;;;0.35;78.00
17615;BME280;8926;49.720;6.576;2022-12-11T00:44:40;99303.31;;;0.35;79.22
17615;BME280;8926;49.720;6.576;2022-12-11T00:47:06;99297.25;;;0.38;78.56
17615;BME280;8926;49.720;6.576;2022-12-11T00:49:31;99292.06;;;0.41;78.35
17615;BME280;8926;49.720;6.576;2022-12-11T00:51:56;99292.84;;;0.44;79.63
17615;BME280;8926;49.720;6.576;2022-12-11T00:54:22;99294.38;;;0.51;79.21
17615;BME280;8926;49.720;6.576;2022-12-11T00:56:47;99289.16;;;0.54;79.18
17615;BME280;8926;49.720;6.576;2022-12-11T00:59:12;99289.00;;;0.60;78.90
17615;BME280;8926;49.720;6.576;2022-12-11T01:01:38;99289.75;;;0.65;80.12
17615;BME280;8926;49.720;6.576;2022-12-11T01:04:03;99292.19;;;0.72;78.15
17615;BME280;8926;49.720;6.576;2022-12-11T01:06:28;99287.81;;;0.75;78.12
17615;BME280;8926;49.720;6.576;2022-12-11T01:08:55;99292.19;;;0.72;78.52
17615;BME280;8926;49.720;6.576;2022-12-11T01:11:40;99293.88;;;0.73;77.99
17615;BME280;8926;49.720;6.576;2022-12-11T01:14:06;99290.50;;;0.71;78.93
17615;BME280;8926;49.720;6.576;2022-12-11T01:16:32;99299.16;;;0.66;79.39
17615;BME280;8926;49.720;6.576;2022-12-11T01:18:57;99293.94;;;0.70;78.45
17615;BME280;8926;49.720;6.576;2022-12-11T01:21:22;99296.47;;;0.71;79.37
17615;BME280;8926;49.720;6.576;2022-12-11T01:23:51;99300.63;;;0.77;78.23
17615;BME280;8926;49.720;6.576;2022-12-11T01:26:17;99295.53;;;0.75;78.17
17615;BME280;8926;49.720;6.576;2022-12-11T01:28:43;99297.31;;;0.72;78.74
17615;BME280;8926;49.720;6.576;2022-12-11T01:31:10;99297.25;;;0.75;79.03
17615;BME280;8926;49.720;6.576;2022-12-11T01:33:36;99298.06;;;0.77;78.78
17615;BME280;8926;49.720;6.576;2022-12-11T01:36:15;99293.03;;;0.72;79.65
17615;BME280;8926;49.720;6.576;2022-12-11T01:38:41;99286.78;;;0.81;79.24
17615;BME280;8926;49.720;6.576;2022-12-11T01:41:07;99284.97;;;0.86;78.41
17615;BME280;8926;49.720;6.576;2022-12-11T01:43:33;99280.63;;;0.88;79.07
17615;BME280;8926;49.720;6.576;2022-12-11T01:45:58;99294.19;;;0.94;79.26
17615;BME280;8926;49.720;6.576;2022-12-11T01:48:29;99295.03;;;0.95;78.90
17615;BME280;8926;49.720;6.576;2022-12-11T01:50:59;99296.66;;;0.99;78.89
17615;BME280;8926;49.720;6.576;2022-12-11T01:53:30;99300.03;;;1.01;77.80
17615;BME280;8926;49.720;6.576;2022-12-11T01:55:58;99295.03;;;0.95;77.89
17615;BME280;8926;49.720;6.576;2022-12-11T01:58:30;99292.47;;;0.95;78.02
17615;BME280;8926;49.720;6.576;2022-12-11T02:00:57;99295.03;;;0.95;78.47
17615;BME280;8926;49.720;6.576;2022-12-11T02:03:22;99305.38;;;0.92;78.73
17615;BME280;8926;49.720;6.576;2022-12-11T02:05:48;99298.47;;;0.94;78.01
17615;BME280;8926;49.720;6.576;2022-12-11T02:08:14;99290.19;;;0.83;79.53
17615;BME280;8926;49.720;6.576;2022-12-11T02:10:48;99288.41;;;0.85;79.76
17615;BME280;8926;49.720;6.576;2022-12-11T02:13:31;99286.69;;;0.85;79.38
17615;BME280;8926;49.720;6.576;2022-12-11T02:16:05;99281.50;;;0.87;80.28
17615;BME280;8926;49.720;6.576;2022-12-11T02:18:50;99284.00;;;0.90;79.53
17615;BME280;8926;49.720;6.576;2022-12-11T02:21:23;99274.44;;;0.95;78.71
17615;BME280;8926;49.720;6.576;2022-12-11T02:29:19;99279.34;;;1.04;78.34
17615;BME280;8926;49.720;6.576;2022-12-11T02:32:02;99272.63;;;1.00;78.95
17615;BME280;8926;49.720;6.576;2022-12-11T02:37:04;99269.25;;;0.98;79.64
17615;BME280;8926;49.720;6.576;2022-12-11T02:39:35;99264.88;;;1.01;78.95
17615;BME280;8926;49.720;6.576;2022-12-11T02:42:03;99261.47;;;0.99;78.75
17615;BME280;8926;49.720;6.576;2022-12-11T02:44:31;99264.03;;;1.01;78.40
17615;BME280;8926;49.720;6.576;2022-12-11T02:46:58;99263.19;;;1.00;78.25
17615;BME280;8926;49.720;6.576;2022-12-11T02:49:24;99262.56;;;0.91;79.50
17615;BME280;8926;49.720;6.576;2022-12-11T02:51:51;99266.81;;;0.92;79.18
17615;BME280;8926;49.720;6.576;2022-12-11T02:54:21;99272.75;;;0.94;79.96
17615;BME280;8926;49.720;6.576;2022-12-11T02:56:56;99270.19;;;0.94;79.10
17615;BME280;8926;49.720;6.576;2022-12-11T02:59:33;99271.06;;;0.93;79.98
17615;BME280;8926;49.720;6.576;2022-12-11T03:02:00;99276.16;;;0.96;79.41
17615;BME280;8926;49.720;6.576;2022-12-11T03:04:27;99276.16;;;0.96;79.59
17615;BME280;8926;49.720;6.576;2022-12-11T03:06:55;99274.28;;;1.02;78.57
17615;BME280;8926;49.720;6.576;2022-12-11T03:09:24;99267.63;;;0.94;78.37
17615;BME280;8926;49.720;6.576;2022-12-11T03:11:50;99276.38;;;0.87;79.96
17615;BME280;8926;49.720;6.576;2022-12-11T03:14:16;99268.69;;;0.85;79.40
17615;BME280;8926;49.720;6.576;2022-12-11T03:16:52;99271.28;;;0.84;78.99
17615;BME280;8926;49.720;6.576;2022-12-11T03:19:28;99262.69;;;0.85;79.00
17615;BME280;8926;49.720;6.576;2022-12-11T03:22:02;99253.97;;;0.92;78.45
17615;BME280;8926;49.720;6.576;2022-12-11T03:24:38;99262.78;;;0.82;78.38
17615;BME280;8926;49.720;6.576;2022-12-11T03:27:30;99262.78;;;0.82;78.37
17615;BME280;8926;49.720;6.576;2022-12-11T03:30:00;99264.53;;;0.80;78.52
17615;BME280;8926;49.720;6.576;2022-12-11T03:32:29;99259.31;;;0.83;79.13
17615;BME280;8926;49.720;6.576;2022-12-11T03:35:13;99262.16;;;0.74;79.25
17615;BME280;8926;49.720;6.576;2022-12-11T03:37:42;99257.81;;;0.76;79.05
17615;BME280;8926;49.720;6.576;2022-12-11T03:40:15;99257.88;;;0.73;79.04
17615;BME280;8926;49.720;6.576;2022-12-11T03:42:43;99266.41;;;0.75;79.71
17615;BME280;8926;49.720;6.576;2022-12-11T03:45:11;99270.50;;;0.82;79.26
17615;BME280;8926;49.720;6.576;2022-12-11T03:47:38;99278.97;;;0.85;79.20
17615;BME280;8926;49.720;6.576;2022-12-11T03:50:07;99273.00;;;0.85;79.16
17615;BME280;8926;49.720;6.576;2022-12-11T03:52:35;99267.91;;;0.82;79.30
17615;BME280;8926;49.720;6.576;2022-12-11T03:55:03;99272.13;;;0.84;78.31
17615;BME280;8926;49.720;6.576;2022-12-11T03:57:31;99266.22;;;0.81;78.68
17615;BME280;8926;49.720;6.576;2022-12-11T03:59:57;99254.25;;;0.80;79.79
17615;BME280;8926;49.720;6.576;2022-12-11T04:02:23;99255.78;;;0.87;80.64
17615;BME280;8926;49.720;6.576;2022-12-11T04:04:48;99255.56;;;0.96;78.64
17615;BME280;8926;49.720;6.576;2022-12-11T04:07:13;99256.56;;;0.90;79.28
17615;BME280;8926;49.720;6.576;2022-12-11T04:09:39;99252.34;;;0.88;78.59
17615;BME280;8926;49.720;6.576;2022-12-11T04:12:04;99255.78;;;0.87;78.78
17615;BME280;8926;49.720;6.576;2022-12-11T04:14:30;99259.22;;;0.87;78.64
17615;BME280;8926;49.720;6.576;2022-12-11T04:17:14;99258.34;;;0.88;78.81
17615;BME280;8926;49.720;6.576;2022-12-11T04:20:05;99251.63;;;0.83;78.83
17615;BME280;8926;49.720;6.576;2022-12-11T04:22:49;99256.06;;;0.78;78.45
17615;BME280;8926;49.720;6.576;2022-12-11T04:25:33;99261.41;;;0.68;79.51
17615;BME280;8926;49.720;6.576;2022-12-11T04:27:59;99254.56;;;0.67;79.69
17615;BME280;8926;49.720;6.576;2022-12-11T04:30:25;99261.47;;;0.65;78.68
17615;BME280;8926;49.720;6.576;2022-12-11T04:32:51;99245.19;;;0.66;79.76
17615;BME280;8926;49.720;6.576;2022-12-11T04:35:17;99253.69;;;0.68;78.60
17615;BME280;8926;49.720;6.576;2022-12-11T04:37:43;99252.06;;;0.64;79.07
17615;BME280;8926;49.720;6.576;2022-12-11T04:40:11;99251.06;;;0.72;79.99
17615;BME280;8926;49.720;6.576;2022-12-11T04:42:37;99247.53;;;0.76;79.47
17615;BME280;8926;49.720;6.576;2022-12-11T04:45:03;99243.13;;;0.79;79.42
17615;BME280;8926;49.720;6.576;2022-12-11T04:47:29;99249.78;;;0.88;79.47
17615;BME280;8926;49.720;6.576;2022-12-11T04:49:54;99243.75;;;0.89;79.04
17615;BME280;8926;49.720;6.576;2022-12-11T04:52:20;99248.97;;;0.86;77.39
17615;BME280;8926;49.720;6.576;2022-12-11T04:54:45;99250.81;;;0.81;78.53
17615;BME280;8926;49.720;6.576;2022-12-11T04:57:11;99250.91;;;0.78;78.50
17615;BME280;8926;49.720;6.576;2022-12-11T04:59:36;99251.81;;;0.75;78.66
17615;BME280;8926;49.720;6.576;2022-12-11T05:02:02;99247.53;;;0.76;79.37
17615;BME280;8926;49.720;6.576;2022-12-11T05:04:32;99247.28;;;0.85;77.51
17615;BME280;8926;49.720;6.576;2022-12-11T05:06:58;99254.38;;;0.77;77.21
17615;BME280;8926;49.720;6.576;2022-12-11T05:09:24;99253.69;;;0.68;77.96
17615;BME280;8926;49.720;6.576;2022-12-11T05:11:50;99251.06;;;0.72;77.93
17615;BME280;8926;49.720;6.576;2022-12-11T05:14:15;99246.34;;;0.53;78.05
17615;BME280;8926;49.720;6.576;2022-12-11T05:16:41;99237.94;;;0.48;78.82
17615;BME280;8926;49.720;6.576;2022-12-11T05:19:06;99244.75;;;0.49;79.23
17615;BME280;8926;49.720;6.576;2022-12-11T05:21:31;99244.97;;;0.40;79.69
17615;BME280;8926;49.720;6.576;2022-12-11T05:23:57;99242.44;;;0.39;79.57
17615;BME280;8926;49.720;6.576;2022-12-11T05:26:22;99239.06;;;0.37;79.03
17615;BME280;8926;49.720;6.576;2022-12-11T05:28:51;99244.91;;;0.43;79.21
17615;BME280;8926;49.720;6.576;2022-12-11T05:31:20;99234.63;;;0.43;79.38
17615;BME280;8926;49.720;6.576;2022-12-11T05:33:46;99241.38;;;0.47;78.69
17615;BME280;8926;49.720;6.576;2022-12-11T05:36:25;99230.28;;;0.45;78.98
17615;BME280;8926;49.720;6.576;2022-12-11T05:38:51;99230.50;;;0.36;79.77
17615;BME280;8926;49.720;6.576;2022-12-11T05:41:22;99232.38;;;0.29;80.16
17615;BME280;8926;49.720;6.576;2022-12-11T05:43:47;99234.75;;;0.37;79.37
17615;BME280;8926;49.720;6.576;2022-12-11T05:46:19;99237.41;;;0.34;79.22
17615;BME280;8926;49.720;6.576;2022-12-11T05:48:47;99236.53;;;0.35;79.13
17615;BME280;8926;49.720;6.576;2022-12-11T05:51:14;99240.91;;;0.30;78.92
17615;BME280;8926;49.720;6.576;2022-12-11T05:53:40;99241.09;;;0.24;78.52
17615;BME280;8926;49.720;6.576;2022-12-11T05:56:09;99252.38;;;0.17;79.18
17615;BME280;8926;49.720;6.576;2022-12-11T05:58:35;99249.97;;;0.09;79.24
17615;BME280;8926;49.720;6.576;2022-12-11T06:01:02;99247.44;;;0.08;80.02
17615;BME280;8926;49.720;6.576;2022-12-11T06:03:30;99252.56;;;0.08;80.53
17615;BME280;8926;49.720;6.576;2022-12-11T06:05:55;99249.06;;;0.12;79.51
17615;BME280;8926;49.720;6.576;2022-12-11T06:08:21;99250.06;;;0.05;79.45
17615;BME280;8926;49.720;6.576;2022-12-11T06:10:47;99255.25;;;0.02;81.16
17615;BME280;8926;49.720;6.576;2022-12-11T06:13:14;99246.69;;;0.03;79.87
17615;BME280;8926;49.720;6.576;2022-12-11T06:15:39;99242.22;;;0.11;79.30
17615;BME280;8926;49.720;6.576;2022-12-11T06:18:04;99240.47;;;0.13;79.62
17615;BME280;8926;49.720;6.576;2022-12-11T06:20:31;99238.78;;;0.12;79.91
17615;BME280;8926;49.720;6.576;2022-12-11T06:22:56;99243.84;;;0.15;79.50
17615;BME280;8926;49.720;6.576;2022-12-11T06:25:21;99248.09;;;0.16;78.92
17615;BME280;8926;49.720;6.576;2022-12-11T06:27:46;99247.28;;;0.14;79.33
17615;BME280;8926;49.720;6.576;2022-12-11T06:30:12;99239.50;;;0.18;80.15
17615;BME280;8926;49.720;6.576;2022-12-11T06:32:37;99240.34;;;0.19;79.34
17615;BME280;8926;49.720;6.576;2022-12-11T06:35:03;99236.81;;;0.23;80.33
17615;BME280;8926;49.720;6.576;2022-12-11T06:37:29;99234.78;;;0.36;80.05
17615;BME280;8926;49.720;6.576;2022-12-11T06:39:54;99233.94;;;0.35;78.25
17615;BME280;8926;49.720;6.576;2022-12-11T06:42:19;99225.38;;;0.36;79.61
17615;BME280;8926;49.720;6.576;2022-12-11T06:44:44;99219.28;;;0.40;79.25
17615;BME280;8926;49.720;6.576;2022-12-11T06:47:10;99226.16;;;0.38;78.96
17615;BME280;8926;49.720;6.576;2022-12-11T06:49:35;99214.91;;;0.44;79.35
17615;BME280;8926;49.720;6.576;2022-12-11T06:52:00;99229.47;;;0.43;78.80
17615;BME280;8926;49.720;6.576;2022-12-11T06:54:26;99219.13;;;0.46;78.76
17615;BME280;8926;49.720;6.576;2022-12-11T06:56:52;99217.38;;;0.48;78.61
17615;BME280;8926;49.720;6.576;2022-12-11T06:59:17;99220.06;;;0.44;78.29
17615;BME280;8926;49.720;6.576;2022-12-11T07:01:43;99225.38;;;0.36;79.13
17615;BME280;8926;49.720;6.576;2022-12-11T07:04:09;99228.84;;;0.33;79.19
17615;BME280;8926;49.720;6.576;2022-12-11T07:06:34;99233.06;;;0.36;78.98
17615;BME280;8926;49.720;6.576;2022-12-11T07:09:03;99236.53;;;0.35;80.68
17615;BME280;8926;49.720;6.576;2022-12-11T07:11:29;99232.16;;;0.39;80.09
17615;BME280;8926;49.720;6.576;2022-12-11T07:13:57;99239.69;;;0.46;79.56
17615;BME280;8926;49.720;6.576;2022-12-11T07:16:23;99243.13;;;0.45;79.60
17615;BME280;8926;49.720;6.576;2022-12-11T07:18:49;99240.69;;;0.41;79.77
17615;BME280;8926;49.720;6.576;2022-12-11T07:21:15;99229.47;;;0.43;79.42
17615;BME280;8926;49.720;6.576;2022-12-11T07:23:41;99225.16;;;0.45;80.23
17615;BME280;8926;49.720;6.576;2022-12-11T07:26:11;99225.00;;;0.51;80.48
17615;BME280;8926;49.720;6.576;2022-12-11T07:28:37;99225.78;;;0.53;79.36
17615;BME280;8926;49.720;6.576;2022-12-11T07:31:07;99236.16;;;0.50;79.02
17615;BME280;8926;49.720;6.576;2022-12-11T07:33:33;99235.22;;;0.53;79.08
17615;BME280;8926;49.720;6.576;2022-12-11T07:36:03;99241.06;;;0.59;79.17
17615;BME280;8926;49.720;6.576;2022-12-11T07:38:28;99241.00;;;0.62;78.69
17615;BME280;8926;49.720;6.576;2022-12-11T07:40:54;99251.13;;;0.68;79.10
17615;BME280;8926;49.720;6.576;2022-12-11T07:43:19;99248.59;;;0.67;79.12
17615;BME280;8926;49.720;6.576;2022-12-11T07:45:44;99245.06;;;0.71;80.30
17615;BME280;8926;49.720;6.576;2022-12-11T07:48:10;99237.41;;;0.70;79.79
17615;BME280;8926;49.720;6.576;2022-12-11T07:50:37;99240.91;;;0.65;79.18
17615;BME280;8926;49.720;6.576;2022-12-11T07:53:02;99236.66;;;0.64;78.89
17615;BME280;8926;49.720;6.576;2022-12-11T07:55:27;99242.75;;;0.60;78.50
17615;BME280;8926;49.720;6.576;2022-12-11T07:57:53;99236.16;;;0.50;79.08
17615;BME280;8926;49.720;6.576;2022-12-11T08:00:18;99238.75;;;0.50;79.38
17615;BME280;8926;49.720;6.576;2022-12-11T08:02:43;99246.69;;;0.40;79.59
17615;BME280;8926;49.720;6.576;2022-12-11T08:05:09;99248.28;;;0.45;79.09
17615;BME280;8926;49.720;6.576;2022-12-11T08:07:34;99246.63;;;0.43;79.26
17615;BME280;8926;49.720;6.576;2022-12-11T08:10:00;99251.94;;;0.35;79.32
17615;BME280;8926;49.720;6.576;2022-12-11T08:12:25;99246.94;;;0.29;79.43
17615;BME280;8926;49.720;6.576;2022-12-11T08:14:50;99241.06;;;0.25;79.67
17615;BME280;8926;49.720;6.576;2022-12-11T08:17:16;99242.66;;;0.28;79.79
17615;BME280;8926;49.720;6.576;2022-12-11T08:19:41;99248.69;;;0.27;79.00
17615;BME280;8926;49.720;6.576;2022-12-11T08:22:06;99249.72;;;0.20;79.64
17615;BME280;8926;49.720;6.576;2022-12-11T08:24:32;99247.97;;;0.22;80.94
17615;BME280;8926;49.720;6.576;2022-12-11T08:26:57;99246.94;;;0.29;80.38
17615;BME280;8926;49.720;6.576;2022-12-11T08:29:22;99250.25;;;0.34;81.30
17615;BME280;8926;49.720;6.576;2022-12-11T08:31:47;99254.38;;;0.41;80.25
17615;BME280;8926;49.720;6.576;2022-12-11T08:34:14;99264.72;;;0.38;79.35
17615;BME280;8926;49.720;6.576;2022-12-11T08:36:39;99250.16;;;0.37;80.11
17615;BME280;8926;49.720;6.576;2022-12-11T08:39:05;99251.94;;;0.35;79.54
17615;BME280;8926;49.720;6.576;2022-12-11T08:41:30;99251.94;;;0.35;79.92
17615;BME280;8926;49.720;6.576;2022-12-11T08:43:57;99255.31;;;0.37;79.87
17615;BME280;8926;49.720;6.576;2022-12-11T08:46:25;99250.03;;;0.43;80.16
17615;BME280;8926;49.720;6.576;2022-12-11T08:48:52;99253.41;;;0.45;79.38
17615;BME280;8926;49.720;6.576;2022-12-11T08:51:20;99246.59;;;0.44;78.93
17615;BME280;8926;49.720;6.576;2022-12-11T08:53:47;99242.41;;;0.40;79.50
17615;BME280;8926;49.720;6.576;2022-12-11T08:56:14;99249.38;;;0.35;79.35
17615;BME280;8926;49.720;6.576;2022-12-11T08:58:40;99251.88;;;0.38;79.87
17615;BME280;8926;49.720;6.576;2022-12-11T09:01:07;99245.94;;;0.34;80.10
17615;BME280;8926;49.720;6.576;2022-12-11T09:03:33;99246.94;;;0.29;79.75
17615;BME280;8926;49.720;6.576;2022-12-11T09:05:59;99247.03;;;0.26;80.16
17615;BME280;8926;49.720;6.576;2022-12-11T09:08:24;99247.16;;;0.20;80.63
17615;BME280;8926;49.720;6.576;2022-12-11T09:10:49;99245.41;;;0.22;80.40
17615;BME280;8926;49.720;6.576;2022-12-11T09:13:15;99240.19;;;0.25;80.26
17615;BME280;8926;49.720;6.576;2022-12-11T09:15:40;99237.44;;;0.32;80.07
17615;BME280;8926;49.720;6.576;2022-12-11T09:18:06;99245.03;;;0.37;81.28
17615;BME280;8926;49.720;6.576;2022-12-11T09:20:31;99244.06;;;0.43;80.10
17615;BME280;8926;49.720;6.576;2022-12-11T09:22:56;99232.84;;;0.45;80.08
17615;BME280;8926;49.720;6.576;2022-12-11T09:25:22;99247.38;;;0.48;79.77
17615;BME280;8926;49.720;6.576;2022-12-11T09:27:47;99237.13;;;0.46;80.35
17615;BME280;8926;49.720;6.576;2022-12-11T09:30:13;99231.94;;;0.48;80.15
17615;BME280;8926;49.720;6.576;2022-12-11T09:32:38;99230.31;;;0.44;80.88
17615;BME280;8926;49.720;6.576;2022-12-11T09:35:04;99236.31;;;0.44;79.98
17615;BME280;8926;49.720;6.576;2022-12-11T09:37:29;99225.97;;;0.47;79.94
17615;BME280;8926;49.720;6.576;2022-12-11T09:39:56;99231.16;;;0.44;79.92
17615;BME280;8926;49.720;6.576;2022-12-11T09:42:46;99232.84;;;0.45;81.01
17615;BME280;8926;49.720;6.576;2022-12-11T09:45:14;99230.09;;;0.53;81.24
17615;BME280;8926;49.720;6.576;2022-12-11T09:47:43;99229.03;;;0.61;79.91
17615;BME280;8926;49.720;6.576;2022-12-11T09:52:39;99223.91;;;0.60;80.00
17615;BME280;8926;49.720;6.576;2022-12-11T09:55:17;99217.97;;;0.58;80.00
17615;BME280;8926;49.720;6.576;2022-12-11T10:00:54;99229.09;;;0.58;79.71
17615;BME280;8926;49.720;6.576;2022-12-11T10:03:52;99224.84;;;0.57;80.37
17615;BME280;8926;49.720;6.576;2022-12-11T10:06:35;99210.16;;;0.62;80.30
17615;BME280;8926;49.720;6.576;2022-12-11T10:09:17;99211.84;;;0.63;79.90
17615;BME280;8926;49.720;6.576;2022-12-11T10:14:45;99209.94;;;0.72;80.52
17615;BME280;8926;49.720;6.576;2022-12-11T10:17:27;99202.16;;;0.75;80.37
17615;BME280;8926;49.720;6.576;2022-12-11T10:19:56;99213.06;;;0.83;80.59
17615;BME280;8926;49.720;6.576;2022-12-11T10:22:29;99194.94;;;0.87;78.79
17615;BME280;8926;49.720;6.576;2022-12-11T10:25:01;99191.53;;;0.87;80.33
17615;BME280;8926;49.720;6.576;2022-12-11T10:27:33;99193.25;;;0.86;79.54
17615;BME280;8926;49.720;6.576;2022-12-11T10:32:50;99187.03;;;0.95;79.11
17615;BME280;8926;49.720;6.576;2022-12-11T10:35:27;99180.91;;;0.99;78.80
17615;BME280;8926;49.720;6.576;2022-12-11T10:37:57;99167.31;;;0.95;78.96
17615;BME280;8926;49.720;6.576;2022-12-11T10:40:28;99172.56;;;0.91;78.80
17615;BME280;8926;49.720;6.576;2022-12-11T10:42:53;99170.06;;;0.88;78.82
17615;BME280;8926;49.720;6.576;2022-12-11T10:45:19;99170.91;;;0.88;79.56
17615;BME280;8926;49.720;6.576;2022-12-11T10:47:44;99167.34;;;0.94;79.44
17615;BME280;8926;49.720;6.576;2022-12-11T10:50:24;99159.47;;;1.00;79.08
17615;BME280;8926;49.720;6.576;2022-12-11T10:52:50;99152.44;;;1.05;79.38
17615;BME280;8926;49.720;6.576;2022-12-11T10:55:24;99152.44;;;1.05;78.97
17615;BME280;8926;49.720;6.576;2022-12-11T10:58:02;99150.75;;;1.04;79.02
17615;BME280;8926;49.720;6.576;2022-12-11T11:00:39;99152.19;;;1.14;79.27
17615;BME280;8926;49.720;6.576;2022-12-11T11:03:17;99146.28;;;1.11;78.87
17615;BME280;8926;49.720;6.576;2022-12-11T11:05:44;99151.44;;;1.11;78.60
17615;BME280;8926;49.720;6.576;2022-12-11T11:08:16;99155.56;;;1.16;78.11
17615;BME280;8926;49.720;6.576;2022-12-11T11:11:21;99143.44;;;1.21;79.69
17615;BME280;8926;49.720;6.576;2022-12-11T11:13:47;99136.28;;;1.31;79.03
17615;BME280;8926;49.720;6.576;2022-12-11T11:16:15;99137.75;;;1.40;78.90
17615;BME280;8926;49.720;6.576;2022-12-11T11:18:49;99130.69;;;1.46;78.44
17615;BME280;8926;49.720;6.576;2022-12-11T11:21:21;99131.41;;;1.51;78.16
17615;BME280;8926;49.720;6.576;2022-12-11T11:23:48;99127.00;;;1.55;77.73
17615;BME280;8926;49.720;6.576;2022-12-11T11:26:14;99125.41;;;1.51;78.19
17615;BME280;8926;49.720;6.576;2022-12-11T11:28:47;99127.06;;;1.53;78.01
17615;BME280;8926;49.720;6.576;2022-12-11T11:31:14;99121.56;;;1.64;77.33
17615;BME280;8926;49.720;6.576;2022-12-11T11:33:56;99127.53;;;1.64;77.02
17615;BME280;8926;49.720;6.576;2022-12-11T11:36:25;99122.44;;;1.63;76.57
17615;BME280;8926;49.720;6.576;2022-12-11T11:39:32;99118.28;;;1.59;76.94
17615;BME280;8926;49.720;6.576;2022-12-11T11:42:18;99110.38;;;1.65;77.44
17615;BME280;8926;49.720;6.576;2022-12-11T11:45:02;99111.34;;;1.61;77.46
17615;BME280;8926;49.720;6.576;2022-12-11T11:47:42;99107.09;;;1.60;76.71
17615;BME280;8926;49.720;6.576;2022-12-11T11:50:16;99106.13;;;1.64;76.51
17615;BME280;8926;49.720;6.576;2022-12-11T11:52:48;99094.94;;;1.65;77.06
17615;BME280;8926;49.720;6.576;2022-12-11T11:55:19;99088.59;;;1.75;77.35
17615;BME280;8926;49.720;6.576;2022-12-11T11:57:56;99081.69;;;1.77;77.22
17615;BME280;8926;49.720;6.576;2022-12-11T12:00:26;99084.94;;;1.82;76.46
17615;BME280;8926;49.720;6.576;2022-12-11T12:03:08;99083.16;;;1.84;76.39
17615;BME280;8926;49.720;6.576;2022-12-11T12:08:14;99095.63;;;1.70;75.87
17615;BME280;8926;49.720;6.576;2022-12-11T12:10:50;99094.00;;;1.67;76.85
17615;BME280;8926;49.720;6.576;2022-12-11T12:13:43;99094.78;;;1.69;76.46
17615;BME280;8926;49.720;6.576;2022-12-11T12:16:43;99098.13;;;1.73;76.37
17615;BME280;8926;49.720;6.576;2022-12-11T12:22:48;99084.16;;;1.80;76.85
17615;BME280;8926;49.720;6.576;2022-12-11T12:25:42;99078.66;;;1.91;77.60
17615;BME280;8926;49.720;6.576;2022-12-11T12:38:53;99078.00;;;1.84;75.18
17615;BME280;8926;49.720;6.576;2022-12-11T12:41:34;99080.75;;;1.80;76.23
17615;BME280;8926;49.720;6.576;2022-12-11T12:44:14;99084.84;;;1.85;76.04
17615;BME280;8926;49.720;6.576;2022-12-11T12:46:59;99081.38;;;1.86;76.37
17615;BME280;8926;49.720;6.576;2022-12-11T12:49:39;99076.03;;;1.92;76.71
17615;BME280;8926;49.720;6.576;2022-12-11T12:54:42;99074.34;;;1.91;75.92
17615;BME280;8926;49.720;6.576;2022-12-11T12:57:30;99071.53;;;1.99;76.38
17615;BME280;8926;49.720;6.576;2022-12-11T13:00:00;99078.38;;;2.00;75.95
17615;BME280;8926;49.720;6.576;2022-12-11T13:02:25;99072.16;;;2.06;76.14
17615;BME280;8926;49.720;6.576;2022-12-11T13:04:57;99069.84;;;1.98;76.28
17615;BME280;8926;49.720;6.576;2022-12-11T13:07:27;99079.19;;;2.00;75.94
17615;BME280;8926;49.720;6.576;2022-12-11T13:10:21;99081.69;;;2.03;75.99
17615;BME280;8926;49.720;6.576;2022-12-11T13:12:49;99077.19;;;2.09;75.82
17615;BME280;8926;49.720;6.576;2022-12-11T13:15:33;99087.72;;;2.02;75.16
17615;BME280;8926;49.720;6.576;2022-12-11T13:18:05;99096.63;;;1.92;75.61
17615;BME280;8926;49.720;6.576;2022-12-11T13:20:47;99091.66;;;1.86;75.11
17615;BME280;8926;49.720;6.576;2022-12-11T13:23:18;99097.13;;;1.77;75.86
17615;BME280;8926;49.720;6.576;2022-12-11T13:25:56;99096.16;;;1.81;75.79
17615;BME280;8926;49.720;6.576;2022-12-11T13:31:02;99095.44;;;1.76;75.92
17615;BME280;8926;49.720;6.576;2022-12-11T13:33:29;99099.09;;;1.69;75.76
17615;BME280;8926;49.720;6.576;2022-12-11T13:38:36;99107.72;;;1.68;76.68
17615;BME280;8926;49.720;6.576;2022-12-11T13:41:09;99102.38;;;1.74;77.36
17615;BME280;8926;49.720;6.576;2022-12-11T13:43:35;99111.53;;;1.83;76.97
17615;BME280;8926;49.720;6.576;2022-12-11T13:46:04;99112.28;;;1.86;76.67
17615;BME280;8926;49.720;6.576;2022-12-11T13:48:35;99103.47;;;1.93;77.31
17615;BME280;8926;49.720;6.576;2022-12-11T13:51:03;99104.16;;;1.98;77.01
17615;BME280;8926;49.720;6.576;2022-12-11T13:53:29;99106.66;;;2.01;76.75
17615;BME280;8926;49.720;6.576;2022-12-11T13:56:00;99111.69;;;2.04;76.38
17615;BME280;8926;49.720;6.576;2022-12-11T13:58:27;99109.78;;;2.10;75.36
17615;BME280;8926;49.720;6.576;2022-12-11T14:01:01;99107.50;;;2.02;75.57
17615;BME280;8926;49.720;6.576;2022-12-11T14:03:30;99112.19;;;1.89;75.44
17615;BME280;8926;49.720;6.576;2022-12-11T14:05:55;99114.16;;;1.81;75.74
17615;BME280;8926;49.720;6.576;2022-12-11T14:08:22;99123.75;;;1.76;76.56
17615;BME280;8926;49.720;6.576;2022-12-11T14:10:52;99119.41;;;1.78;77.06
17615;BME280;8926;49.720;6.576;2022-12-11T14:13:23;99123.63;;;1.81;76.87
17615;BME280;8926;49.720;6.576;2022-12-11T14:15:49;99120.88;;;1.85;76.61
17615;BME280;8926;49.720;6.576;2022-12-11T14:18:20;99110.50;;;1.88;76.75